createdAt,value
2023-05-17T00:02:05.333Z,2.13
2023-05-17T00:04:34.172Z,1.83
2023-05-17T00:07:04.259Z,1.84
2023-05-17T00:09:32.811Z,1.93
2023-05-17T00:12:01.413Z,1.76
2023-05-17T00:14:30.163Z,1.76
2023-05-17T00:16:58.687Z,1.82
2023-05-17T00:19:27.353Z,1.80
2023-05-17T00:21:55.939Z,1.72
2023-05-17T00:24:26.855Z,1.87
2023-05-17T00:26:55.596Z,1.83
2023-05-17T00:29:24.187Z,1.70
2023-05-17T00:31:52.726Z,1.69
2023-05-17T00:34:21.252Z,1.53
2023-05-17T00:36:49.771Z,1.46
2023-05-17T00:39:18.546Z,1.51
2023-05-17T00:41:48.508Z,1.64
2023-05-17T00:44:17.063Z,1.41
2023-05-17T00:46:46.881Z,1.76
2023-05-17T00:49:15.791Z,1.71
2023-05-17T00:51:46.154Z,1.57
2023-05-17T00:54:16.139Z,1.66
2023-05-17T00:56:45.520Z,1.28
2023-05-17T00:59:16.166Z,1.66
2023-05-17T01:01:47.055Z,1.67
2023-05-17T01:04:16.230Z,1.52
2023-05-17T01:06:44.848Z,1.80
2023-05-17T01:09:14.068Z,1.73
2023-05-17T01:11:53.744Z,1.80
2023-05-17T01:14:38.159Z,1.80
2023-05-17T01:17:14.778Z,1.80
2023-05-17T01:19:59.369Z,1.59
2023-05-17T01:22:41.316Z,1.83
2023-05-17T01:25:24.597Z,1.57
2023-05-17T01:28:00.169Z,1.64
2023-05-17T01:30:30.357Z,1.54
2023-05-17T01:33:00.546Z,1.65
2023-05-17T01:35:29.664Z,1.76
2023-05-17T01:37:58.475Z,1.62
2023-05-17T01:40:27.411Z,1.23
2023-05-17T01:43:05.789Z,1.68
2023-05-17T01:45:43.096Z,1.71
2023-05-17T01:48:23.261Z,1.55
2023-05-17T01:50:53.779Z,1.68
2023-05-17T01:53:29.847Z,1.41
2023-05-17T01:56:06.110Z,1.77
2023-05-17T01:58:47.208Z,1.47
2023-05-17T02:01:19.725Z,1.46
2023-05-17T02:03:50.663Z,1.83
2023-05-17T02:06:19.401Z,1.52
2023-05-17T02:08:47.920Z,1.86
2023-05-17T02:11:16.445Z,1.76
2023-05-17T02:13:46.351Z,1.56
2023-05-17T02:16:14.872Z,1.65
2023-05-17T02:18:43.467Z,1.71
2023-05-17T02:21:13.436Z,1.93
2023-05-17T02:23:41.959Z,1.78
2023-05-17T02:26:10.453Z,2.04
2023-05-17T02:28:38.965Z,1.58
2023-05-17T02:31:10.300Z,1.56
2023-05-17T02:33:39.117Z,1.52
2023-05-17T02:36:08.120Z,1.65
2023-05-17T02:38:36.687Z,1.62
2023-05-17T02:41:05.259Z,1.78
2023-05-17T02:43:33.765Z,1.61
2023-05-17T02:46:02.275Z,1.54
2023-05-17T02:48:32.187Z,1.62
2023-05-17T02:51:00.724Z,1.39
2023-05-17T02:53:29.234Z,1.55
2023-05-17T02:55:58.408Z,1.42
2023-05-17T02:58:26.976Z,1.48
2023-05-17T03:00:55.512Z,1.36
2023-05-17T03:03:24.149Z,1.46
2023-05-17T03:05:54.202Z,1.58
2023-05-17T03:08:23.375Z,1.55
2023-05-17T03:10:52.379Z,1.39
2023-05-17T03:13:20.914Z,1.42
2023-05-17T03:15:49.491Z,1.54
2023-05-17T03:18:18.252Z,1.60
2023-05-17T03:20:47.408Z,1.55
2023-05-17T03:23:17.495Z,1.32
2023-05-17T03:25:46.031Z,1.51
2023-05-17T03:28:14.544Z,1.46
2023-05-17T03:30:43.208Z,1.09
2023-05-17T03:33:11.935Z,0.96
2023-05-17T03:35:40.533Z,1.16
2023-05-17T03:38:09.668Z,1.02
2023-05-17T03:40:39.849Z,0.89
2023-05-17T03:43:08.382Z,1.08
2023-05-17T03:45:36.906Z,0.97
2023-05-17T03:48:06.300Z,0.88
2023-05-17T03:50:35.084Z,1.16
2023-05-17T03:53:03.587Z,0.76
2023-05-17T03:55:32.134Z,0.86
2023-05-17T03:58:02.798Z,0.92
2023-05-17T04:00:31.328Z,0.81
2023-05-17T04:03:00.196Z,1.21
2023-05-17T04:05:29.133Z,0.81
2023-05-17T04:07:57.964Z,0.63
2023-05-17T04:10:26.885Z,0.76
2023-05-17T04:12:55.478Z,0.89
2023-05-17T04:15:25.599Z,0.63
2023-05-17T04:20:43.795Z,0.87
2023-05-17T04:23:12.373Z,0.88
2023-05-17T04:25:40.876Z,0.93
2023-05-17T04:28:09.430Z,0.72
2023-05-17T04:30:43.457Z,0.75
2023-05-17T04:33:14.094Z,0.86
2023-05-17T04:35:43.784Z,0.87
2023-05-17T04:38:12.472Z,0.95
2023-05-17T04:40:41.205Z,0.77
2023-05-17T04:43:09.996Z,1.00
2023-05-17T04:45:40.028Z,0.97
2023-05-17T04:48:09.076Z,0.90
2023-05-17T04:50:37.702Z,1.06
2023-05-17T04:53:06.209Z,1.07
2023-05-17T04:55:34.726Z,1.16
2023-05-17T04:58:03.511Z,1.26
2023-05-17T05:00:32.064Z,1.28
2023-05-17T05:03:02.242Z,1.16
2023-05-17T05:05:31.468Z,1.27
2023-05-17T05:08:00.124Z,1.30
2023-05-17T05:10:29.407Z,1.10
2023-05-17T05:12:58.280Z,1.22
2023-05-17T05:15:27.099Z,1.33
2023-05-17T05:17:55.892Z,1.45
2023-05-17T05:20:27.924Z,1.42
2023-05-17T05:22:58.595Z,1.47
2023-05-17T05:25:27.477Z,1.26
2023-05-17T05:27:56.164Z,1.31
2023-05-17T05:30:24.866Z,1.38
2023-05-17T05:32:54.212Z,1.54
2023-05-17T05:35:29.424Z,1.65
2023-05-17T05:37:59.967Z,1.86
2023-05-17T05:40:29.674Z,1.58
2023-05-17T05:42:58.480Z,1.77
2023-05-17T05:45:27.122Z,1.81
2023-05-17T05:47:56.461Z,1.71
2023-05-17T05:50:25.032Z,1.99
2023-05-17T05:52:56.276Z,1.90
2023-05-17T05:55:33.826Z,2.11
2023-05-17T05:58:02.637Z,2.09
2023-05-17T06:00:31.377Z,2.35
2023-05-17T06:03:00.311Z,2.09
2023-05-17T06:05:31.159Z,2.79
2023-05-17T06:07:59.776Z,2.75
2023-05-17T06:10:29.744Z,3.16
2023-05-17T06:12:59.994Z,3.48
2023-05-17T06:15:30.490Z,4.04
2023-05-17T06:17:59.741Z,4.28
2023-05-17T06:20:29.106Z,4.46
2023-05-17T06:22:57.792Z,4.61
2023-05-17T06:25:26.551Z,5.48
2023-05-17T06:27:55.064Z,5.82
2023-05-17T06:30:25.555Z,6.61
2023-05-17T06:32:54.107Z,5.73
2023-05-17T06:35:23.233Z,5.95
2023-05-17T06:37:51.767Z,6.40
2023-05-17T06:40:20.341Z,7.28
2023-05-17T06:42:48.863Z,7.47
2023-05-17T06:45:17.385Z,7.55
2023-05-17T06:47:47.384Z,8.52
2023-05-17T06:50:19.585Z,8.53
2023-05-17T06:52:48.955Z,8.96
2023-05-17T06:55:17.688Z,9.31
2023-05-17T06:57:46.213Z,8.92
2023-05-17T07:00:16.526Z,8.41
2023-05-17T07:02:46.558Z,9.52
2023-05-17T07:05:15.266Z,8.64
2023-05-17T07:07:43.870Z,8.83
2023-05-17T07:10:13.179Z,9.38
2023-05-17T07:12:41.773Z,9.99
2023-05-17T07:15:11.832Z,10.66
2023-05-17T07:17:40.627Z,9.99
2023-05-17T07:20:13.546Z,10.46
2023-05-17T07:22:42.227Z,10.93
2023-05-17T07:25:11.704Z,11.10
2023-05-17T07:27:40.240Z,11.79
2023-05-17T07:30:10.441Z,11.81
2023-05-17T07:32:42.026Z,12.00
2023-05-17T07:35:12.024Z,12.45
2023-05-17T07:37:40.552Z,10.59
2023-05-17T07:40:11.731Z,11.75
2023-05-17T07:42:40.282Z,11.28
2023-05-17T07:45:10.837Z,11.53
2023-05-17T07:47:39.902Z,9.82
2023-05-17T07:50:09.720Z,9.96
2023-05-17T07:52:39.699Z,11.38
2023-05-17T07:55:09.675Z,11.62
2023-05-17T07:57:38.221Z,11.16
2023-05-17T08:00:08.927Z,11.08
2023-05-17T08:02:37.541Z,10.83
2023-05-17T08:05:07.373Z,10.38
2023-05-17T08:07:35.922Z,10.75
2023-05-17T08:10:09.803Z,9.90
2023-05-17T08:12:38.821Z,10.91
2023-05-17T08:15:08.550Z,12.23
2023-05-17T08:17:37.318Z,11.14
2023-05-17T08:20:08.498Z,9.71
2023-05-17T08:22:39.921Z,9.85
2023-05-17T08:25:10.869Z,11.20
2023-05-17T08:27:40.043Z,11.72
2023-05-17T08:30:14.895Z,11.81
2023-05-17T08:32:49.309Z,13.29
2023-05-17T08:35:17.957Z,14.00
2023-05-17T08:37:47.224Z,13.12
2023-05-17T08:40:20.440Z,11.84
2023-05-17T08:42:50.580Z,12.58
2023-05-17T08:45:20.100Z,13.36
2023-05-17T08:47:49.336Z,11.83
2023-05-17T08:50:18.159Z,12.26
2023-05-17T08:52:47.710Z,11.43
2023-05-17T08:55:18.373Z,10.43
2023-05-17T08:57:47.753Z,10.17
2023-05-17T09:00:21.618Z,9.76
2023-05-17T09:02:51.000Z,9.77
2023-05-17T09:05:20.157Z,9.64
2023-05-17T09:07:50.634Z,9.91
2023-05-17T09:10:21.180Z,9.13
2023-05-17T09:12:50.805Z,9.15
2023-05-17T09:15:24.199Z,9.48
2023-05-17T09:17:55.029Z,9.87
2023-05-17T09:20:25.820Z,9.93
2023-05-17T09:22:54.379Z,9.20
2023-05-17T09:25:26.348Z,10.02
2023-05-17T09:27:55.103Z,9.27
2023-05-17T09:30:29.509Z,9.45
2023-05-17T09:32:59.193Z,9.85
2023-05-17T09:35:31.683Z,9.42
2023-05-17T09:38:09.303Z,9.43
2023-05-17T09:40:42.101Z,9.17
2023-05-17T09:43:12.741Z,9.25
2023-05-17T09:45:41.507Z,9.06
2023-05-17T09:48:15.118Z,9.92
2023-05-17T09:50:47.771Z,9.83
2023-05-17T09:53:30.434Z,10.65
2023-05-17T09:56:03.414Z,10.25
2023-05-17T09:58:34.993Z,10.14
2023-05-17T10:01:05.562Z,11.17
2023-05-17T10:03:37.049Z,12.27
2023-05-17T10:06:13.296Z,11.99
2023-05-17T10:08:48.723Z,10.81
2023-05-17T10:11:24.377Z,11.52
2023-05-17T10:14:06.024Z,11.08
2023-05-17T10:16:35.783Z,11.65
2023-05-17T10:19:05.012Z,10.82
2023-05-17T10:21:34.621Z,11.80
2023-05-17T10:24:05.337Z,13.35
2023-05-17T10:26:36.063Z,13.35
2023-05-17T10:29:06.507Z,13.90
2023-05-17T10:31:36.801Z,14.12
2023-05-17T10:34:07.567Z,13.22
2023-05-17T10:36:36.757Z,13.21
2023-05-17T10:39:09.138Z,13.09
2023-05-17T10:41:44.238Z,11.74
2023-05-17T10:44:17.333Z,10.77
2023-05-17T10:46:54.191Z,10.88
2023-05-17T10:49:25.741Z,10.99
2023-05-17T10:51:54.851Z,10.53
2023-05-17T10:54:35.827Z,10.60
2023-05-17T10:57:09.130Z,9.86
2023-05-17T10:59:37.797Z,10.64
2023-05-17T11:02:07.905Z,10.75
2023-05-17T11:04:38.957Z,11.57
2023-05-17T11:07:32.385Z,11.45
2023-05-17T11:10:10.472Z,10.44
2023-05-17T11:12:43.224Z,12.16
2023-05-17T11:15:13.684Z,11.95
2023-05-17T11:17:56.749Z,12.43
2023-05-17T11:20:35.342Z,12.90
2023-05-17T11:23:07.238Z,12.73
2023-05-17T11:25:38.050Z,12.38
2023-05-17T11:28:19.450Z,11.07
2023-05-17T11:30:51.843Z,11.43
2023-05-17T11:33:32.986Z,11.43
2023-05-17T11:36:08.692Z,10.24
2023-05-17T11:38:38.118Z,11.00
2023-05-17T11:43:55.503Z,10.85
2023-05-17T11:46:25.881Z,10.70
2023-05-17T11:48:55.275Z,10.52
2023-05-17T11:51:25.138Z,11.70
2023-05-17T11:53:56.128Z,11.18
2023-05-17T11:56:35.661Z,11.15
2023-05-17T11:59:12.844Z,12.17
2023-05-17T12:01:46.131Z,11.71
2023-05-17T12:04:14.979Z,11.93
2023-05-17T12:06:44.027Z,11.32
2023-05-17T12:09:13.786Z,12.17
2023-05-17T12:11:43.511Z,11.36
2023-05-17T12:14:18.720Z,10.82
2023-05-17T12:16:53.396Z,10.71
2023-05-17T12:19:23.796Z,12.13
2023-05-17T12:21:52.829Z,12.74
2023-05-17T12:24:21.824Z,12.81
2023-05-17T12:26:50.544Z,13.12
2023-05-17T12:29:23.612Z,12.24
2023-05-17T12:31:53.944Z,10.91
2023-05-17T12:34:23.717Z,11.21
2023-05-17T12:36:53.787Z,11.89
2023-05-17T12:39:24.572Z,11.38
2023-05-17T12:41:54.012Z,11.22
2023-05-17T12:44:24.441Z,13.09
2023-05-17T12:46:54.204Z,12.63
2023-05-17T12:49:23.333Z,11.37
2023-05-17T12:51:51.993Z,11.23
2023-05-17T12:54:30.810Z,11.96
2023-05-17T12:56:59.373Z,12.42
2023-05-17T12:59:29.883Z,11.40
2023-05-17T13:02:00.987Z,11.34
2023-05-17T13:04:36.793Z,11.18
2023-05-17T13:07:07.165Z,12.20
2023-05-17T13:09:36.549Z,12.55
2023-05-17T13:12:08.613Z,12.00
2023-05-17T13:14:46.166Z,12.22
2023-05-17T13:17:21.182Z,12.85
2023-05-17T13:19:50.207Z,12.83
2023-05-17T13:22:18.870Z,12.14
2023-05-17T13:24:47.561Z,11.81
2023-05-17T13:27:17.225Z,12.07
2023-05-17T13:29:47.839Z,11.70
2023-05-17T13:32:16.447Z,11.93
2023-05-17T13:34:45.326Z,12.87
2023-05-17T13:37:13.849Z,12.62
2023-05-17T13:39:42.903Z,12.63
2023-05-17T13:42:11.765Z,12.95
2023-05-17T13:44:40.801Z,12.74
2023-05-17T13:47:10.820Z,12.95
2023-05-17T13:49:39.338Z,13.28
2023-05-17T13:52:09.573Z,13.28
2023-05-17T13:54:39.245Z,12.48
2023-05-17T13:57:08.410Z,11.89
2023-05-17T13:59:37.144Z,11.66
2023-05-17T14:02:05.882Z,11.67
2023-05-17T14:04:36.168Z,12.17
2023-05-17T14:07:05.190Z,11.63
2023-05-17T14:09:34.665Z,11.83
2023-05-17T14:12:03.831Z,11.79
2023-05-17T14:14:32.768Z,12.36
2023-05-17T14:17:02.048Z,12.82
2023-05-17T14:19:31.071Z,12.57
2023-05-17T14:22:01.145Z,11.92
2023-05-17T14:24:29.697Z,11.32
2023-05-17T14:26:58.815Z,11.73
2023-05-17T14:29:27.445Z,11.51
2023-05-17T14:31:55.986Z,11.56
2023-05-17T14:34:24.625Z,11.58
2023-05-17T14:36:54.674Z,11.82
2023-05-17T14:39:24.696Z,11.86
2023-05-17T14:41:53.240Z,11.51
2023-05-17T14:44:21.756Z,11.44
2023-05-17T14:46:50.284Z,11.59
2023-05-17T14:49:18.886Z,11.81
2023-05-17T14:51:47.553Z,11.23
2023-05-17T14:54:16.857Z,11.61
2023-05-17T14:56:47.305Z,11.91
2023-05-17T14:59:16.418Z,11.88
2023-05-17T15:01:44.944Z,11.66
2023-05-17T15:04:13.751Z,12.20
2023-05-17T15:06:43.024Z,12.14
2023-05-17T15:09:13.339Z,12.05
2023-05-17T15:11:42.114Z,12.38
2023-05-17T15:14:12.029Z,11.81
2023-05-17T15:16:40.817Z,11.64
2023-05-17T15:19:09.919Z,11.35
2023-05-17T15:21:38.764Z,11.69
2023-05-17T15:24:08.107Z,11.74
2023-05-17T15:26:36.909Z,12.19
2023-05-17T15:29:05.494Z,11.90
2023-05-17T15:31:35.462Z,11.48
2023-05-17T15:34:04.977Z,10.87
2023-05-17T15:36:35.038Z,10.90
2023-05-17T15:39:03.755Z,11.18
2023-05-17T15:41:33.354Z,10.97
2023-05-17T15:44:01.956Z,10.52
2023-05-17T15:46:30.501Z,10.43
2023-05-17T15:49:00.671Z,10.65
2023-05-17T15:51:29.228Z,10.59
2023-05-17T15:53:58.136Z,10.35
2023-05-17T15:56:27.233Z,11.06
2023-05-17T15:58:55.813Z,11.18
2023-05-17T16:01:24.346Z,11.17
2023-05-17T16:03:52.891Z,11.36
2023-05-17T16:06:23.049Z,10.97
2023-05-17T16:08:51.630Z,10.67
2023-05-17T16:11:20.399Z,10.93
2023-05-17T16:13:48.885Z,10.99
2023-05-17T16:16:17.410Z,10.78
2023-05-17T16:18:46.082Z,10.63
2023-05-17T16:21:14.751Z,10.91
2023-05-17T16:23:44.757Z,10.98
2023-05-17T16:26:13.295Z,11.17
2023-05-17T16:28:41.991Z,10.98
2023-05-17T16:31:10.816Z,10.89
2023-05-17T16:33:41.466Z,10.68
2023-05-17T16:36:12.471Z,10.41
2023-05-17T16:38:41.379Z,10.52
2023-05-17T16:41:11.373Z,10.90
2023-05-17T16:43:39.916Z,10.69
2023-05-17T16:46:08.502Z,10.55
2023-05-17T16:48:37.006Z,10.42
2023-05-17T16:51:06.201Z,10.73
2023-05-17T16:53:34.978Z,10.40
2023-05-17T16:56:03.715Z,10.40
2023-05-17T16:58:33.782Z,9.39
2023-05-17T17:01:03.271Z,10.00
2023-05-17T17:03:32.363Z,10.15
2023-05-17T17:06:01.072Z,10.14
2023-05-17T17:08:29.586Z,10.00
2023-05-17T17:10:58.082Z,10.43
2023-05-17T17:13:26.934Z,10.51
2023-05-17T17:15:56.883Z,10.69
2023-05-17T17:18:25.480Z,10.29
2023-05-17T17:20:54.198Z,9.99
2023-05-17T17:23:23.003Z,10.01
2023-05-17T17:25:51.507Z,10.23
2023-05-17T17:28:20.010Z,10.25
2023-05-17T17:30:48.881Z,9.87
2023-05-17T17:33:18.832Z,9.87
2023-05-17T17:35:47.409Z,9.71
2023-05-17T17:38:15.943Z,9.61
2023-05-17T17:40:44.501Z,9.57
2023-05-17T17:43:13.085Z,9.50
2023-05-17T17:45:41.647Z,9.73
2023-05-17T17:48:10.499Z,9.79
2023-05-17T17:50:40.542Z,9.45
2023-05-17T17:53:09.100Z,9.49
2023-05-17T17:55:37.871Z,9.28
2023-05-17T17:58:07.563Z,9.05
2023-05-17T18:00:36.266Z,8.99
2023-05-17T18:03:05.341Z,8.93
2023-05-17T18:05:34.532Z,8.72
2023-05-17T18:08:05.055Z,8.67
2023-05-17T18:10:33.653Z,8.38
2023-05-17T18:13:02.431Z,8.28
2023-05-17T18:15:31.069Z,8.05
2023-05-17T18:17:59.661Z,7.93
2023-05-17T18:20:28.442Z,8.00
2023-05-17T18:22:57.068Z,7.73
2023-05-17T18:25:26.974Z,7.72
2023-05-17T18:27:55.479Z,7.95
2023-05-17T18:30:24.944Z,7.48
2023-05-17T18:32:53.492Z,7.46
2023-05-17T18:35:22.036Z,7.14
2023-05-17T18:37:50.812Z,7.08
2023-05-17T18:40:19.636Z,7.02
2023-05-17T18:42:49.557Z,7.12
2023-05-17T18:45:18.128Z,7.11
2023-05-17T18:47:46.817Z,6.59
2023-05-17T18:50:15.559Z,6.88
2023-05-17T18:52:44.133Z,6.61
2023-05-17T18:55:12.715Z,6.51
2023-05-17T18:57:42.457Z,6.24
2023-05-17T19:00:14.504Z,6.38
2023-05-17T19:02:43.135Z,5.96
2023-05-17T19:05:11.706Z,6.03
2023-05-17T19:07:40.212Z,5.56
2023-05-17T19:10:10.371Z,5.25
2023-05-17T19:12:38.895Z,5.24
2023-05-17T19:15:10.936Z,5.27
2023-05-17T19:17:40.973Z,5.08
2023-05-17T19:20:12.599Z,5.09
2023-05-17T19:22:41.138Z,5.26
2023-05-17T19:25:10.634Z,5.35
2023-05-17T19:27:39.170Z,4.68
2023-05-17T19:30:10.887Z,4.87
2023-05-17T19:32:41.200Z,5.11
2023-05-17T19:35:11.323Z,4.91
2023-05-17T19:37:39.834Z,4.62
2023-05-17T19:40:10.332Z,4.21
2023-05-17T19:42:39.692Z,4.06
2023-05-17T19:45:11.133Z,4.38
2023-05-17T19:47:41.345Z,4.29
2023-05-17T19:50:12.065Z,4.51
2023-05-17T19:52:40.626Z,3.96
2023-05-17T19:55:09.241Z,3.48
2023-05-17T19:57:37.847Z,3.98
2023-05-17T20:00:08.915Z,4.12
2023-05-17T20:02:37.496Z,3.88
2023-05-17T20:05:08.334Z,3.71
2023-05-17T20:07:37.999Z,3.16
2023-05-17T20:10:07.257Z,3.50
2023-05-17T20:12:35.882Z,3.14
2023-05-17T20:15:06.402Z,3.38
2023-05-17T20:17:35.006Z,3.28
2023-05-17T20:20:04.501Z,3.32
2023-05-17T20:22:36.241Z,3.24
2023-05-17T20:25:05.119Z,3.33
2023-05-17T20:27:33.658Z,2.86
2023-05-17T20:30:02.292Z,2.89
2023-05-17T20:32:30.886Z,2.83
2023-05-17T20:34:59.509Z,2.54
2023-05-17T20:37:28.035Z,2.63
2023-05-17T20:40:00.125Z,2.64
2023-05-17T20:42:31.176Z,2.75
2023-05-17T20:44:59.698Z,2.52
2023-05-17T20:47:29.350Z,2.56
2023-05-17T20:49:58.887Z,2.54
2023-05-17T20:52:38.878Z,2.40
2023-05-17T20:55:11.066Z,2.43
2023-05-17T20:57:40.428Z,2.03
2023-05-17T21:00:12.094Z,2.54
2023-05-17T21:02:40.886Z,2.41
2023-05-17T21:05:10.942Z,2.52
2023-05-17T21:07:42.694Z,2.31
2023-05-17T21:10:12.733Z,2.18
2023-05-17T21:12:41.232Z,2.24
2023-05-17T21:17:59.211Z,2.07
2023-05-17T21:20:27.777Z,2.12
2023-05-17T21:22:56.276Z,2.29
2023-05-17T21:25:26.321Z,2.23
2023-05-17T21:27:55.017Z,2.30
2023-05-17T21:30:25.193Z,2.22
2023-05-17T21:32:53.744Z,2.35
2023-05-17T21:35:25.329Z,2.65
2023-05-17T21:37:53.834Z,2.90
2023-05-17T21:40:22.818Z,2.82
2023-05-17T21:42:52.716Z,2.93
2023-05-17T21:45:21.328Z,2.87
2023-05-17T21:47:50.082Z,3.15
2023-05-17T21:50:18.672Z,3.24
2023-05-17T21:52:47.178Z,3.23
2023-05-17T21:55:16.023Z,2.79
2023-05-17T21:57:44.540Z,2.81
2023-05-17T22:00:15.991Z,2.60
2023-05-17T22:02:46.370Z,2.68
2023-05-17T22:05:15.327Z,2.37
2023-05-17T22:07:44.143Z,2.32
2023-05-17T22:10:13.402Z,1.99
2023-05-17T22:12:42.195Z,2.00
2023-05-17T22:15:13.705Z,2.12
2023-05-17T22:17:48.553Z,2.12
2023-05-17T22:20:23.670Z,2.09
2023-05-17T22:22:52.767Z,1.94
2023-05-17T22:25:21.423Z,1.95
2023-05-17T22:27:49.942Z,1.95
2023-05-17T22:30:20.052Z,1.84
2023-05-17T22:32:48.613Z,1.83
2023-05-17T22:35:17.191Z,1.56
2023-05-17T22:37:45.845Z,1.55
2023-05-17T22:40:15.018Z,1.51
2023-05-17T22:42:45.006Z,1.32
2023-05-17T22:45:14.686Z,1.71
2023-05-17T22:47:46.916Z,1.63
2023-05-17T22:50:15.923Z,1.70
2023-05-17T22:52:46.687Z,1.45
2023-05-17T22:55:15.201Z,1.97
2023-05-17T22:57:43.945Z,1.83
2023-05-17T23:00:13.963Z,1.90
2023-05-17T23:02:44.111Z,1.96
2023-05-17T23:05:13.143Z,1.90
2023-05-17T23:07:43.616Z,1.72
2023-05-17T23:10:14.414Z,1.63
2023-05-17T23:12:43.220Z,1.43
2023-05-17T23:15:13.017Z,1.40
2023-05-17T23:17:41.821Z,1.39
2023-05-17T23:20:13.497Z,1.19
2023-05-17T23:22:42.326Z,1.21
2023-05-17T23:25:11.521Z,1.21
2023-05-17T23:27:40.177Z,1.06
2023-05-17T23:30:10.168Z,0.95
2023-05-17T23:32:39.418Z,1.19
2023-05-17T23:35:09.738Z,1.15
2023-05-17T23:37:40.072Z,1.24
2023-05-17T23:40:10.569Z,1.19
2023-05-17T23:42:39.605Z,1.12
2023-05-17T23:45:09.459Z,1.08
2023-05-17T23:47:41.148Z,1.16
2023-05-17T23:50:11.047Z,1.10
2023-05-17T23:52:41.183Z,0.94
2023-05-17T23:55:12.220Z,0.98
2023-05-17T23:57:42.476Z,1.18
